sensor_id;sensor_type;location;lat;lon;timestamp;temperature;humidity
13354;DHT22;6746;50.892;4.064;2023-07-20T00:00:48;17.30;99.90
13354;DHT22;6746;50.892;4.064;2023-07-20T00:03:26;17.30;99.90
13354;DHT22;6746;50.892;4.064;2023-07-20T00:06:04;17.30;99.90
13354;DHT22;6746;50.892;4.064;2023-07-20T00:08:45;17.30;99.90
13354;DHT22;6746;50.892;4.064;2023-07-20T00:11:25;17.30;99.90
13354;DHT22;6746;50.892;4.064;2023-07-20T00:14:02;17.40;99.90
13354;DHT22;6746;50.892;4.064;2023-07-20T00:16:40;17.30;99.90
13354;DHT22;6746;50.892;4.064;2023-07-20T00:19:28;17.40;99.90
13354;DHT22;6746;50.892;4.064;2023-07-20T00:22:06;17.30;99.90
13354;DHT22;6746;50.892;4.064;2023-07-20T00:24:45;17.30;99.90
13354;DHT22;6746;50.892;4.064;2023-07-20T00:27:25;17.20;99.90
13354;DHT22;6746;50.892;4.064;2023-07-20T00:30:04;17.10;99.90
13354;DHT22;6746;50.892;4.064;2023-07-20T00:32:47;17.10;99.90
13354;DHT22;6746;50.892;4.064;2023-07-20T00:35:26;17.10;99.90
13354;DHT22;6746;50.892;4.064;2023-07-20T00:38:07;17.10;99.90
13354;DHT22;6746;50.892;4.064;2023-07-20T00:40:45;17.10;99.90
13354;DHT22;6746;50.892;4.064;2023-07-20T00:43:23;17.00;99.90
13354;DHT22;6746;50.892;4.064;2023-07-20T00:46:02;17.00;99.90
13354;DHT22;6746;50.892;4.064;2023-07-20T00:48:43;17.00;99.90
13354;DHT22;6746;50.892;4.064;2023-07-20T00:51:21;17.00;99.90
13354;DHT22;6746;50.892;4.064;2023-07-20T00:54:04;17.00;99.90
13354;DHT22;6746;50.892;4.064;2023-07-20T00:56:42;17.00;99.90
13354;DHT22;6746;50.892;4.064;2023-07-20T00:59:25;16.90;99.90
13354;DHT22;6746;50.892;4.064;2023-07-20T01:02:03;16.90;99.90
13354;DHT22;6746;50.892;4.064;2023-07-20T01:04:51;16.80;99.90
13354;DHT22;6746;50.892;4.064;2023-07-20T01:07:39;16.70;99.90
13354;DHT22;6746;50.892;4.064;2023-07-20T01:10:19;16.60;99.90
13354;DHT22;6746;50.892;4.064;2023-07-20T01:13:05;16.50;99.90
13354;DHT22;6746;50.892;4.064;2023-07-20T01:15:48;16.50;99.90
13354;DHT22;6746;50.892;4.064;2023-07-20T01:18:21;16.50;99.90
13354;DHT22;6746;50.892;4.064;2023-07-20T01:21:06;16.40;99.90
13354;DHT22;6746;50.892;4.064;2023-07-20T01:23:46;16.40;99.90
13354;DHT22;6746;50.892;4.064;2023-07-20T01:26:46;16.40;99.90
13354;DHT22;6746;50.892;4.064;2023-07-20T01:32:20;16.40;99.90
13354;DHT22;6746;50.892;4.064;2023-07-20T01:35:01;16.40;99.90
13354;DHT22;6746;50.892;4.064;2023-07-20T01:37:40;16.40;99.90
13354;DHT22;6746;50.892;4.064;2023-07-20T01:40:19;16.40;99.90
13354;DHT22;6746;50.892;4.064;2023-07-20T01:42:56;16.30;99.90
13354;DHT22;6746;50.892;4.064;2023-07-20T01:45:37;16.30;99.90
13354;DHT22;6746;50.892;4.064;2023-07-20T01:48:15;16.30;99.90
13354;DHT22;6746;50.892;4.064;2023-07-20T01:51:03;16.40;99.90
13354;DHT22;6746;50.892;4.064;2023-07-20T01:53:41;16.30;99.90
13354;DHT22;6746;50.892;4.064;2023-07-20T01:56:20;16.30;99.90
13354;DHT22;6746;50.892;4.064;2023-07-20T01:59:00;16.40;99.90
13354;DHT22;6746;50.892;4.064;2023-07-20T02:01:38;16.30;99.90
13354;DHT22;6746;50.892;4.064;2023-07-20T02:04:27;16.30;99.90
13354;DHT22;6746;50.892;4.064;2023-07-20T02:07:15;16.20;99.90
13354;DHT22;6746;50.892;4.064;2023-07-20T02:10:03;16.20;99.90
13354;DHT22;6746;50.892;4.064;2023-07-20T02:12:51;16.10;99.90
13354;DHT22;6746;50.892;4.064;2023-07-20T02:15:39;16.10;99.90
13354;DHT22;6746;50.892;4.064;2023-07-20T02:18:28;16.00;99.90
13354;DHT22;6746;50.892;4.064;2023-07-20T02:21:16;16.00;99.90
13354;DHT22;6746;50.892;4.064;2023-07-20T02:23:59;15.90;99.90
13354;DHT22;6746;50.892;4.064;2023-07-20T02:26:38;15.80;99.90
13354;DHT22;6746;50.892;4.064;2023-07-20T02:29:26;15.80;99.90
13354;DHT22;6746;50.892;4.064;2023-07-20T02:32:14;15.70;99.90
13354;DHT22;6746;50.892;4.064;2023-07-20T02:34:53;15.60;99.90
13354;DHT22;6746;50.892;4.064;2023-07-20T02:37:31;15.60;99.90
13354;DHT22;6746;50.892;4.064;2023-07-20T02:40:14;15.60;99.90
13354;DHT22;6746;50.892;4.064;2023-07-20T02:42:52;15.50;99.90
13354;DHT22;6746;50.892;4.064;2023-07-20T02:45:40;15.50;99.90
13354;DHT22;6746;50.892;4.064;2023-07-20T02:48:22;15.40;99.90
13354;DHT22;6746;50.892;4.064;2023-07-20T02:51:00;15.40;99.90
13354;DHT22;6746;50.892;4.064;2023-07-20T02:53:38;15.40;99.90
13354;DHT22;6746;50.892;4.064;2023-07-20T02:56:19;15.30;99.90
13354;DHT22;6746;50.892;4.064;2023-07-20T02:58:57;15.30;99.90
13354;DHT22;6746;50.892;4.064;2023-07-20T03:01:38;15.40;99.90
13354;DHT22;6746;50.892;4.064;2023-07-20T03:04:16;15.40;99.90
13354;DHT22;6746;50.892;4.064;2023-07-20T03:07:04;15.40;99.90
13354;DHT22;6746;50.892;4.064;2023-07-20T03:09:42;15.50;99.90
13354;DHT22;6746;50.892;4.064;2023-07-20T03:12:20;15.50;99.90
13354;DHT22;6746;50.892;4.064;2023-07-20T03:15:08;15.60;99.90
13354;DHT22;6746;50.892;4.064;2023-07-20T03:17:49;15.60;99.90
13354;DHT22;6746;50.892;4.064;2023-07-20T03:20:28;15.70;99.90
13354;DHT22;6746;50.892;4.064;2023-07-20T03:23:08;15.70;99.90
13354;DHT22;6746;50.892;4.064;2023-07-20T03:25:47;15.70;99.90
13354;DHT22;6746;50.892;4.064;2023-07-20T03:28:35;15.70;99.90
13354;DHT22;6746;50.892;4.064;2023-07-20T03:31:24;15.80;99.90
13354;DHT22;6746;50.892;4.064;2023-07-20T03:34:12;15.80;99.90
13354;DHT22;6746;50.892;4.064;2023-07-20T03:37:00;15.80;99.90
13354;DHT22;6746;50.892;4.064;2023-07-20T03:39:48;15.80;99.90
13354;DHT22;6746;50.892;4.064;2023-07-20T03:42:37;15.80;99.90
13354;DHT22;6746;50.892;4.064;2023-07-20T03:45:20;15.80;99.90
13354;DHT22;6746;50.892;4.064;2023-07-20T03:47:59;15.80;99.90
13354;DHT22;6746;50.892;4.064;2023-07-20T03:50:37;15.90;99.90
13354;DHT22;6746;50.892;4.064;2023-07-20T03:53:15;15.90;99.90
13354;DHT22;6746;50.892;4.064;2023-07-20T03:55:59;15.90;99.90
13354;DHT22;6746;50.892;4.064;2023-07-20T03:58:37;15.90;99.90
13354;DHT22;6746;50.892;4.064;2023-07-20T04:01:25;15.90;99.90
13354;DHT22;6746;50.892;4.064;2023-07-20T04:04:15;15.90;99.90
13354;DHT22;6746;50.892;4.064;2023-07-20T04:07:01;15.90;99.90
13354;DHT22;6746;50.892;4.064;2023-07-20T04:09:50;15.90;99.90
13354;DHT22;6746;50.892;4.064;2023-07-20T04:12:38;15.90;99.90
13354;DHT22;6746;50.892;4.064;2023-07-20T04:15:26;16.00;99.90
13354;DHT22;6746;50.892;4.064;2023-07-20T04:18:05;16.00;99.90
13354;DHT22;6746;50.892;4.064;2023-07-20T04:20:43;16.00;99.90
13354;DHT22;6746;50.892;4.064;2023-07-20T04:23:21;16.00;99.90
13354;DHT22;6746;50.892;4.064;2023-07-20T04:25:59;16.00;99.90
13354;DHT22;6746;50.892;4.064;2023-07-20T04:28:38;16.00;99.90
13354;DHT22;6746;50.892;4.064;2023-07-20T04:31:16;16.00;99.90
13354;DHT22;6746;50.892;4.064;2023-07-20T04:33:47;16.00;99.90
13354;DHT22;6746;50.892;4.064;2023-07-20T04:36:16;16.00;99.90
13354;DHT22;6746;50.892;4.064;2023-07-20T04:38:55;16.00;99.90
13354;DHT22;6746;50.892;4.064;2023-07-20T04:41:29;16.00;99.90
13354;DHT22;6746;50.892;4.064;2023-07-20T04:43:57;16.00;99.90
13354;DHT22;6746;50.892;4.064;2023-07-20T04:46:31;16.10;99.90
13354;DHT22;6746;50.892;4.064;2023-07-20T04:49:00;16.10;99.90
13354;DHT22;6746;50.892;4.064;2023-07-20T04:51:39;16.20;99.90
13354;DHT22;6746;50.892;4.064;2023-07-20T04:54:17;16.20;99.90
13354;DHT22;6746;50.892;4.064;2023-07-20T04:56:51;16.20;99.90
13354;DHT22;6746;50.892;4.064;2023-07-20T04:59:20;16.20;99.90
13354;DHT22;6746;50.892;4.064;2023-07-20T05:01:56;16.20;99.90
13354;DHT22;6746;50.892;4.064;2023-07-20T05:04:25;16.30;99.90
13354;DHT22;6746;50.892;4.064;2023-07-20T05:07:04;16.30;99.90
13354;DHT22;6746;50.892;4.064;2023-07-20T05:09:42;16.40;99.90
13354;DHT22;6746;50.892;4.064;2023-07-20T05:12:13;16.40;99.90
13354;DHT22;6746;50.892;4.064;2023-07-20T05:14:42;16.40;99.90
13354;DHT22;6746;50.892;4.064;2023-07-20T05:17:11;16.40;99.90
13354;DHT22;6746;50.892;4.064;2023-07-20T05:19:40;16.50;99.90
13354;DHT22;6746;50.892;4.064;2023-07-20T05:22:16;16.50;99.90
13354;DHT22;6746;50.892;4.064;2023-07-20T05:24:45;16.60;99.90
13354;DHT22;6746;50.892;4.064;2023-07-20T05:27:23;16.60;99.90
13354;DHT22;6746;50.892;4.064;2023-07-20T05:30:00;16.70;99.90
13354;DHT22;6746;50.892;4.064;2023-07-20T05:32:31;16.70;99.90
13354;DHT22;6746;50.892;4.064;2023-07-20T05:35:05;16.70;99.90
13354;DHT22;6746;50.892;4.064;2023-07-20T05:37:34;16.70;99.90
13354;DHT22;6746;50.892;4.064;2023-07-20T05:40:08;16.80;99.90
13354;DHT22;6746;50.892;4.064;2023-07-20T05:42:37;16.80;99.90
13354;DHT22;6746;50.892;4.064;2023-07-20T05:45:06;16.90;99.90
13354;DHT22;6746;50.892;4.064;2023-07-20T05:47:37;16.90;99.90
13354;DHT22;6746;50.892;4.064;2023-07-20T05:50:09;17.00;99.90
13354;DHT22;6746;50.892;4.064;2023-07-20T05:52:39;17.10;99.90
13354;DHT22;6746;50.892;4.064;2023-07-20T05:55:07;17.10;99.90
13354;DHT22;6746;50.892;4.064;2023-07-20T05:57:36;17.10;99.90
13354;DHT22;6746;50.892;4.064;2023-07-20T06:00:14;17.30;99.90
13354;DHT22;6746;50.892;4.064;2023-07-20T06:02:46;17.30;99.90
13354;DHT22;6746;50.892;4.064;2023-07-20T06:05:15;17.40;99.90
13354;DHT22;6746;50.892;4.064;2023-07-20T06:07:44;17.40;99.90
13354;DHT22;6746;50.892;4.064;2023-07-20T06:10:13;17.40;99.90
13354;DHT22;6746;50.892;4.064;2023-07-20T06:12:51;17.30;99.90
13354;DHT22;6746;50.892;4.064;2023-07-20T06:15:26;17.30;99.90
13354;DHT22;6746;50.892;4.064;2023-07-20T06:17:55;17.40;99.90
13354;DHT22;6746;50.892;4.064;2023-07-20T06:20:23;17.50;99.90
13354;DHT22;6746;50.892;4.064;2023-07-20T06:22:52;17.70;99.90
13354;DHT22;6746;50.892;4.064;2023-07-20T06:25:24;17.90;99.90
13354;DHT22;6746;50.892;4.064;2023-07-20T06:27:54;18.10;99.90
13354;DHT22;6746;50.892;4.064;2023-07-20T06:30:25;18.30;99.90
13354;DHT22;6746;50.892;4.064;2023-07-20T06:32:54;18.40;99.90
13354;DHT22;6746;50.892;4.064;2023-07-20T06:35:26;18.60;99.90
13354;DHT22;6746;50.892;4.064;2023-07-20T06:37:57;18.70;99.90
13354;DHT22;6746;50.892;4.064;2023-07-20T06:40:36;18.80;99.90
13354;DHT22;6746;50.892;4.064;2023-07-20T06:43:04;18.80;99.90
13354;DHT22;6746;50.892;4.064;2023-07-20T06:45:33;18.90;99.90
13354;DHT22;6746;50.892;4.064;2023-07-20T06:48:05;19.00;99.90
13354;DHT22;6746;50.892;4.064;2023-07-20T06:50:34;19.10;99.90
13354;DHT22;6746;50.892;4.064;2023-07-20T06:53:06;19.20;99.90
13354;DHT22;6746;50.892;4.064;2023-07-20T06:55:34;19.40;99.90
13354;DHT22;6746;50.892;4.064;2023-07-20T06:58:19;19.70;99.90
13354;DHT22;6746;50.892;4.064;2023-07-20T07:00:48;20.10;99.90
13354;DHT22;6746;50.892;4.064;2023-07-20T07:03:20;20.20;99.90
13354;DHT22;6746;50.892;4.064;2023-07-20T07:05:49;20.40;99.90
13354;DHT22;6746;50.892;4.064;2023-07-20T07:08:27;20.60;99.90
13354;DHT22;6746;50.892;4.064;2023-07-20T07:11:06;20.70;99.90
13354;DHT22;6746;50.892;4.064;2023-07-20T07:13:34;20.80;99.90
13354;DHT22;6746;50.892;4.064;2023-07-20T07:16:02;20.70;99.90
13354;DHT22;6746;50.892;4.064;2023-07-20T07:18:39;21.00;99.90
13354;DHT22;6746;50.892;4.064;2023-07-20T07:21:08;21.10;99.90
13354;DHT22;6746;50.892;4.064;2023-07-20T07:23:46;21.70;99.90
13354;DHT22;6746;50.892;4.064;2023-07-20T07:26:24;22.10;99.90
13354;DHT22;6746;50.892;4.064;2023-07-20T07:28:53;22.60;99.90
13354;DHT22;6746;50.892;4.064;2023-07-20T07:31:22;22.70;99.90
13354;DHT22;6746;50.892;4.064;2023-07-20T07:34:00;23.00;99.90
13354;DHT22;6746;50.892;4.064;2023-07-20T07:36:38;22.90;99.90
13354;DHT22;6746;50.892;4.064;2023-07-20T07:39:21;22.80;99.90
13354;DHT22;6746;50.892;4.064;2023-07-20T07:41:59;23.00;99.90
13354;DHT22;6746;50.892;4.064;2023-07-20T07:44:33;23.60;99.90
13354;DHT22;6746;50.892;4.064;2023-07-20T07:47:01;23.60;99.90
13354;DHT22;6746;50.892;4.064;2023-07-20T07:49:33;23.50;99.90
13354;DHT22;6746;50.892;4.064;2023-07-20T07:52:02;23.40;99.90
13354;DHT22;6746;50.892;4.064;2023-07-20T07:54:38;23.50;99.90
13354;DHT22;6746;50.892;4.064;2023-07-20T07:57:07;23.50;99.90
13354;DHT22;6746;50.892;4.064;2023-07-20T07:59:45;23.40;99.90
13354;DHT22;6746;50.892;4.064;2023-07-20T08:02:17;23.60;99.90
13354;DHT22;6746;50.892;4.064;2023-07-20T08:04:46;23.70;99.90
13354;DHT22;6746;50.892;4.064;2023-07-20T08:07:24;23.70;99.90
13354;DHT22;6746;50.892;4.064;2023-07-20T08:10:03;23.30;99.90
13354;DHT22;6746;50.892;4.064;2023-07-20T08:12:36;23.10;99.90
13354;DHT22;6746;50.892;4.064;2023-07-20T08:15:04;22.70;99.90
13354;DHT22;6746;50.892;4.064;2023-07-20T08:17:34;22.80;99.90
13354;DHT22;6746;50.892;4.064;2023-07-20T08:20:03;22.60;99.90
13354;DHT22;6746;50.892;4.064;2023-07-20T08:22:32;22.50;99.90
13354;DHT22;6746;50.892;4.064;2023-07-20T08:25:01;22.60;99.90
13354;DHT22;6746;50.892;4.064;2023-07-20T08:27:32;22.60;99.90
13354;DHT22;6746;50.892;4.064;2023-07-20T08:30:02;22.60;99.90
13354;DHT22;6746;50.892;4.064;2023-07-20T08:32:33;22.70;99.90
13354;DHT22;6746;50.892;4.064;2023-07-20T08:35:02;22.60;99.90
13354;DHT22;6746;50.892;4.064;2023-07-20T08:37:36;22.70;99.90
13354;DHT22;6746;50.892;4.064;2023-07-20T08:40:05;23.00;99.90
13354;DHT22;6746;50.892;4.064;2023-07-20T08:42:49;23.20;99.90
13354;DHT22;6746;50.892;4.064;2023-07-20T08:45:28;23.50;99.90
13354;DHT22;6746;50.892;4.064;2023-07-20T08:48:08;23.70;99.90
13354;DHT22;6746;50.892;4.064;2023-07-20T08:50:47;23.40;99.90
13354;DHT22;6746;50.892;4.064;2023-07-20T08:53:27;23.10;99.90
13354;DHT22;6746;50.892;4.064;2023-07-20T08:56:05;23.10;99.90
13354;DHT22;6746;50.892;4.064;2023-07-20T08:58:53;23.00;99.90
13354;DHT22;6746;50.892;4.064;2023-07-20T09:01:32;23.10;99.90
13354;DHT22;6746;50.892;4.064;2023-07-20T09:04:08;23.20;99.90
13354;DHT22;6746;50.892;4.064;2023-07-20T09:06:37;23.10;99.90
13354;DHT22;6746;50.892;4.064;2023-07-20T09:09:06;23.00;99.90
13354;DHT22;6746;50.892;4.064;2023-07-20T09:11:35;22.90;99.90
13354;DHT22;6746;50.892;4.064;2023-07-20T09:14:04;23.10;99.90
13354;DHT22;6746;50.892;4.064;2023-07-20T09:16:52;23.20;99.90
13354;DHT22;6746;50.892;4.064;2023-07-20T09:19:19;23.10;99.90
13354;DHT22;6746;50.892;4.064;2023-07-20T09:21:48;23.10;99.90
13354;DHT22;6746;50.892;4.064;2023-07-20T09:24:20;23.50;99.90
13354;DHT22;6746;50.892;4.064;2023-07-20T09:26:49;24.30;99.90
13354;DHT22;6746;50.892;4.064;2023-07-20T09:29:27;24.90;99.90
13354;DHT22;6746;50.892;4.064;2023-07-20T09:32:05;24.80;99.90
13354;DHT22;6746;50.892;4.064;2023-07-20T09:34:34;25.10;99.90
13354;DHT22;6746;50.892;4.064;2023-07-20T09:37:03;24.70;99.90
13354;DHT22;6746;50.892;4.064;2023-07-20T09:39:32;24.90;99.90
13354;DHT22;6746;50.892;4.064;2023-07-20T09:42:01;25.40;99.90
13354;DHT22;6746;50.892;4.064;2023-07-20T09:44:39;25.60;99.90
13354;DHT22;6746;50.892;4.064;2023-07-20T09:47:21;25.80;99.90
13354;DHT22;6746;50.892;4.064;2023-07-20T09:49:44;25.80;99.90
13354;DHT22;6746;50.892;4.064;2023-07-20T09:52:13;26.10;99.90
13354;DHT22;6746;50.892;4.064;2023-07-20T09:54:44;26.20;99.90
13354;DHT22;6746;50.892;4.064;2023-07-20T09:57:21;26.30;99.90
13354;DHT22;6746;50.892;4.064;2023-07-20T09:59:49;26.80;99.90
13354;DHT22;6746;50.892;4.064;2023-07-20T10:02:23;27.00;99.90
13354;DHT22;6746;50.892;4.064;2023-07-20T10:05:02;26.80;99.90
13354;DHT22;6746;50.892;4.064;2023-07-20T10:07:36;26.60;99.90
13354;DHT22;6746;50.892;4.064;2023-07-20T10:10:05;26.40;99.90
13354;DHT22;6746;50.892;4.064;2023-07-20T10:12:37;26.20;99.90
13354;DHT22;6746;50.892;4.064;2023-07-20T10:15:19;26.00;99.90
13354;DHT22;6746;50.892;4.064;2023-07-20T10:18:12;26.20;99.90
13354;DHT22;6746;50.892;4.064;2023-07-20T10:20:48;26.10;99.90
13354;DHT22;6746;50.892;4.064;2023-07-20T10:23:19;26.00;99.90
13354;DHT22;6746;50.892;4.064;2023-07-20T10:25:48;25.80;99.90
13354;DHT22;6746;50.892;4.064;2023-07-20T10:28:20;25.30;99.90
13354;DHT22;6746;50.892;4.064;2023-07-20T10:30:49;25.30;99.90
13354;DHT22;6746;50.892;4.064;2023-07-20T10:33:27;25.40;99.90
13354;DHT22;6746;50.892;4.064;2023-07-20T10:36:06;25.30;99.90
13354;DHT22;6746;50.892;4.064;2023-07-20T10:38:42;24.90;99.90
13354;DHT22;6746;50.892;4.064;2023-07-20T10:41:29;24.80;99.90
13354;DHT22;6746;50.892;4.064;2023-07-20T10:44:07;24.90;99.90
13354;DHT22;6746;50.892;4.064;2023-07-20T10:49:07;24.80;99.90
13354;DHT22;6746;50.892;4.064;2023-07-20T10:51:46;24.60;99.90
13354;DHT22;6746;50.892;4.064;2023-07-20T10:54:33;24.70;99.90
13354;DHT22;6746;50.892;4.064;2023-07-20T10:56:57;24.70;99.90
13354;DHT22;6746;50.892;4.064;2023-07-20T11:02:05;24.00;99.90
13354;DHT22;6746;50.892;4.064;2023-07-20T11:04:40;24.20;99.90
13354;DHT22;6746;50.892;4.064;2023-07-20T11:07:36;24.30;99.90
13354;DHT22;6746;50.892;4.064;2023-07-20T11:09:49;24.40;99.90
13354;DHT22;6746;50.892;4.064;2023-07-20T11:12:19;24.50;99.90
13354;DHT22;6746;50.892;4.064;2023-07-20T11:14:57;24.50;99.90
13354;DHT22;6746;50.892;4.064;2023-07-20T11:17:35;24.50;99.90
13354;DHT22;6746;50.892;4.064;2023-07-20T11:20:13;24.60;99.90
13354;DHT22;6746;50.892;4.064;2023-07-20T11:23:02;24.80;99.90
13354;DHT22;6746;50.892;4.064;2023-07-20T11:25:38;24.90;99.90
13354;DHT22;6746;50.892;4.064;2023-07-20T11:28:07;25.00;99.90
13354;DHT22;6746;50.892;4.064;2023-07-20T11:30:49;25.10;99.90
13354;DHT22;6746;50.892;4.064;2023-07-20T11:33:23;25.20;99.90
13354;DHT22;6746;50.892;4.064;2023-07-20T11:35:52;25.50;99.90
13354;DHT22;6746;50.892;4.064;2023-07-20T11:38:21;25.50;99.90
13354;DHT22;6746;50.892;4.064;2023-07-20T11:40:53;25.70;99.90
13354;DHT22;6746;50.892;4.064;2023-07-20T11:43:22;26.00;99.90
13354;DHT22;6746;50.892;4.064;2023-07-20T11:45:57;26.20;99.90
13354;DHT22;6746;50.892;4.064;2023-07-20T11:48:26;26.30;99.90
13354;DHT22;6746;50.892;4.064;2023-07-20T11:51:04;26.00;99.90
13354;DHT22;6746;50.892;4.064;2023-07-20T11:53:43;26.10;99.90
13354;DHT22;6746;50.892;4.064;2023-07-20T11:56:20;26.00;99.90
13354;DHT22;6746;50.892;4.064;2023-07-20T11:59:01;25.80;99.90
13354;DHT22;6746;50.892;4.064;2023-07-20T12:01:35;25.80;99.90
13354;DHT22;6746;50.892;4.064;2023-07-20T12:04:03;25.50;99.90
13354;DHT22;6746;50.892;4.064;2023-07-20T12:06:32;25.40;99.90
13354;DHT22;6746;50.892;4.064;2023-07-20T12:09:01;25.10;99.90
13354;DHT22;6746;50.892;4.064;2023-07-20T12:11:38;24.80;99.90
13354;DHT22;6746;50.892;4.064;2023-07-20T12:14:07;24.60;99.90
13354;DHT22;6746;50.892;4.064;2023-07-20T12:16:36;24.40;99.90
13354;DHT22;6746;50.892;4.064;2023-07-20T12:21:43;23.90;99.90
13354;DHT22;6746;50.892;4.064;2023-07-20T12:24:15;23.60;99.90
13354;DHT22;6746;50.892;4.064;2023-07-20T12:26:47;23.40;99.90
13354;DHT22;6746;50.892;4.064;2023-07-20T12:29:16;23.40;99.90
13354;DHT22;6746;50.892;4.064;2023-07-20T12:31:46;23.30;99.90
13354;DHT22;6746;50.892;4.064;2023-07-20T12:34:16;23.20;99.90
13354;DHT22;6746;50.892;4.064;2023-07-20T12:36:45;23.00;99.90
13354;DHT22;6746;50.892;4.064;2023-07-20T12:39:23;22.90;99.90
13354;DHT22;6746;50.892;4.064;2023-07-20T12:42:01;22.70;99.90
13354;DHT22;6746;50.892;4.064;2023-07-20T12:44:30;22.50;99.90
13354;DHT22;6746;50.892;4.064;2023-07-20T12:46:59;22.50;99.90
13354;DHT22;6746;50.892;4.064;2023-07-20T12:49:28;22.40;99.90
13354;DHT22;6746;50.892;4.064;2023-07-20T12:51:56;22.40;99.90
13354;DHT22;6746;50.892;4.064;2023-07-20T12:54:28;22.40;99.90
13354;DHT22;6746;50.892;4.064;2023-07-20T12:56:59;22.50;99.90
13354;DHT22;6746;50.892;4.064;2023-07-20T12:59:29;22.50;99.90
13354;DHT22;6746;50.892;4.064;2023-07-20T13:02:00;22.30;99.90
13354;DHT22;6746;50.892;4.064;2023-07-20T13:04:32;22.30;99.90
13354;DHT22;6746;50.892;4.064;2023-07-20T13:07:01;22.30;99.90
13354;DHT22;6746;50.892;4.064;2023-07-20T13:09:30;21.90;99.90
13354;DHT22;6746;50.892;4.064;2023-07-20T13:11:59;21.40;99.90
13354;DHT22;6746;50.892;4.064;2023-07-20T13:14:30;21.00;99.90
13354;DHT22;6746;50.892;4.064;2023-07-20T13:17:01;20.80;99.90
13354;DHT22;6746;50.892;4.064;2023-07-20T13:19:36;20.60;99.90
13354;DHT22;6746;50.892;4.064;2023-07-20T13:22:05;20.60;99.90
13354;DHT22;6746;50.892;4.064;2023-07-20T13:24:43;20.60;99.90
13354;DHT22;6746;50.892;4.064;2023-07-20T13:27:13;20.60;99.90
13354;DHT22;6746;50.892;4.064;2023-07-20T13:29:42;20.60;99.90
13354;DHT22;6746;50.892;4.064;2023-07-20T13:32:14;20.70;99.90
13354;DHT22;6746;50.892;4.064;2023-07-20T13:34:48;20.80;99.90
13354;DHT22;6746;50.892;4.064;2023-07-20T13:37:16;20.90;99.90
13354;DHT22;6746;50.892;4.064;2023-07-20T13:39:45;21.10;99.90
13354;DHT22;6746;50.892;4.064;2023-07-20T13:42:15;21.40;99.90
13354;DHT22;6746;50.892;4.064;2023-07-20T13:44:46;21.50;99.90
13354;DHT22;6746;50.892;4.064;2023-07-20T13:47:17;21.80;99.90
13354;DHT22;6746;50.892;4.064;2023-07-20T13:49:51;21.90;99.90
13354;DHT22;6746;50.892;4.064;2023-07-20T13:52:22;22.20;99.90
13354;DHT22;6746;50.892;4.064;2023-07-20T13:54:56;22.50;99.90
13354;DHT22;6746;50.892;4.064;2023-07-20T13:57:25;22.60;99.90
13354;DHT22;6746;50.892;4.064;2023-07-20T13:59:53;22.80;99.90
13354;DHT22;6746;50.892;4.064;2023-07-20T14:02:22;23.00;99.90
13354;DHT22;6746;50.892;4.064;2023-07-20T14:04:54;23.20;99.90
13354;DHT22;6746;50.892;4.064;2023-07-20T14:07:23;23.30;99.90
13354;DHT22;6746;50.892;4.064;2023-07-20T14:09:55;23.50;99.90
13354;DHT22;6746;50.892;4.064;2023-07-20T14:12:24;23.70;99.90
13354;DHT22;6746;50.892;4.064;2023-07-20T14:15:02;23.60;99.90
13354;DHT22;6746;50.892;4.064;2023-07-20T14:17:33;23.50;99.90
13354;DHT22;6746;50.892;4.064;2023-07-20T14:20:05;23.50;99.90
13354;DHT22;6746;50.892;4.064;2023-07-20T14:22:36;23.50;99.90
13354;DHT22;6746;50.892;4.064;2023-07-20T14:25:08;23.70;99.90
13354;DHT22;6746;50.892;4.064;2023-07-20T14:27:39;23.90;99.90
13354;DHT22;6746;50.892;4.064;2023-07-20T14:30:08;24.10;99.90
13354;DHT22;6746;50.892;4.064;2023-07-20T14:32:47;23.90;99.90
13354;DHT22;6746;50.892;4.064;2023-07-20T14:35:23;23.60;99.90
13354;DHT22;6746;50.892;4.064;2023-07-20T14:37:52;23.50;99.90
13354;DHT22;6746;50.892;4.064;2023-07-20T14:40:21;23.10;99.90
13354;DHT22;6746;50.892;4.064;2023-07-20T14:42:50;23.10;99.90
13354;DHT22;6746;50.892;4.064;2023-07-20T14:45:21;23.00;99.90
13354;DHT22;6746;50.892;4.064;2023-07-20T14:47:50;23.00;99.90
13354;DHT22;6746;50.892;4.064;2023-07-20T14:50:24;22.60;99.90
13354;DHT22;6746;50.892;4.064;2023-07-20T14:52:53;22.50;99.90
13354;DHT22;6746;50.892;4.064;2023-07-20T14:55:24;22.40;99.90
13354;DHT22;6746;50.892;4.064;2023-07-20T14:57:55;21.90;99.90
13354;DHT22;6746;50.892;4.064;2023-07-20T15:00:34;21.60;99.90
13354;DHT22;6746;50.892;4.064;2023-07-20T15:03:05;21.50;99.90
13354;DHT22;6746;50.892;4.064;2023-07-20T15:05:37;21.00;99.90
13354;DHT22;6746;50.892;4.064;2023-07-20T15:08:08;20.20;99.90
13354;DHT22;6746;50.892;4.064;2023-07-20T15:10:39;19.50;99.90
13354;DHT22;6746;50.892;4.064;2023-07-20T15:13:27;18.90;99.90
13354;DHT22;6746;50.892;4.064;2023-07-20T15:16:11;18.40;99.90
13354;DHT22;6746;50.892;4.064;2023-07-20T15:18:45;17.70;99.90
13354;DHT22;6746;50.892;4.064;2023-07-20T15:21:16;17.10;99.90
13354;DHT22;6746;50.892;4.064;2023-07-20T15:23:54;16.90;99.90
13354;DHT22;6746;50.892;4.064;2023-07-20T15:26:32;16.70;99.90
13354;DHT22;6746;50.892;4.064;2023-07-20T15:29:16;16.60;99.90
13354;DHT22;6746;50.892;4.064;2023-07-20T15:31:47;16.70;99.90
13354;DHT22;6746;50.892;4.064;2023-07-20T15:34:25;16.90;99.90
13354;DHT22;6746;50.892;4.064;2023-07-20T15:37:03;17.00;99.90
13354;DHT22;6746;50.892;4.064;2023-07-20T15:39:41;17.00;99.90
13354;DHT22;6746;50.892;4.064;2023-07-20T15:42:19;16.90;99.90
13354;DHT22;6746;50.892;4.064;2023-07-20T15:44:58;16.90;99.90
13354;DHT22;6746;50.892;4.064;2023-07-20T15:47:26;16.80;99.90
13354;DHT22;6746;50.892;4.064;2023-07-20T15:49:57;16.90;99.90
13354;DHT22;6746;50.892;4.064;2023-07-20T15:52:27;16.90;99.90
13354;DHT22;6746;50.892;4.064;2023-07-20T15:54:58;16.90;99.90
13354;DHT22;6746;50.892;4.064;2023-07-20T15:57:29;17.00;99.90
13354;DHT22;6746;50.892;4.064;2023-07-20T16:00:00;17.00;99.90
13354;DHT22;6746;50.892;4.064;2023-07-20T16:02:31;17.00;99.90
13354;DHT22;6746;50.892;4.064;2023-07-20T16:05:03;17.00;99.90
13354;DHT22;6746;50.892;4.064;2023-07-20T16:07:34;17.00;99.90
13354;DHT22;6746;50.892;4.064;2023-07-20T16:10:05;16.90;99.90
13354;DHT22;6746;50.892;4.064;2023-07-20T16:12:45;16.90;99.90
13354;DHT22;6746;50.892;4.064;2023-07-20T16:15:16;17.00;99.90
13354;DHT22;6746;50.892;4.064;2023-07-20T16:17:46;17.10;99.90
13354;DHT22;6746;50.892;4.064;2023-07-20T16:20:15;17.10;99.90
13354;DHT22;6746;50.892;4.064;2023-07-20T16:22:54;17.10;99.90
13354;DHT22;6746;50.892;4.064;2023-07-20T16:25:32;17.10;99.90
13354;DHT22;6746;50.892;4.064;2023-07-20T16:28:10;17.00;99.90
13354;DHT22;6746;50.892;4.064;2023-07-20T16:30:48;17.20;99.90
13354;DHT22;6746;50.892;4.064;2023-07-20T16:33:33;17.30;99.90
13354;DHT22;6746;50.892;4.064;2023-07-20T16:36:11;17.10;99.90
13354;DHT22;6746;50.892;4.064;2023-07-20T16:38:42;17.00;99.90
13354;DHT22;6746;50.892;4.064;2023-07-20T16:41:11;17.00;99.90
13354;DHT22;6746;50.892;4.064;2023-07-20T16:43:49;17.10;99.90
13354;DHT22;6746;50.892;4.064;2023-07-20T16:46:28;17.30;99.90